Time;durP1;ratioP1;P1;durP2;ratioP2;P2;SDS_P1;SDS_P2;PMS_P1;PMS_P2;Temp;Humidity;BMP_temperature;BMP_pressure;BME280_temperature;BME280_humidity;BME280_pressure;Samples;Min_cycle;Max_cycle;Signal;HPM_P1;HPM_P2
2024/02/02 00:02:13;;;;;;;6.32;2.30;;;;;;;;;;5056988;28;20033;-54
2024/02/02 00:04:39;;;;;;;5.97;3.40;;;;;;;;;;5056923;28;20017;-56
2024/02/02 00:07:05;;;;;;;7.70;2.70;;;;;;;;;;5056993;28;20104;-53
2024/02/02 00:09:31;;;;;;;3.40;2.72;;;;;;;;;;5057215;28;20021;-54
2024/02/02 00:11:57;;;;;;;6.47;2.65;;;;;;;;;;5057058;28;20059;-53
2024/02/02 00:14:24;;;;;;;3.33;2.20;;;;;;;;;;5057219;28;20029;-55
2024/02/02 00:16:50;;;;;;;4.63;3.35;;;;;;;;;;5056256;28;20025;-56
2024/02/02 00:19:16;;;;;;;9.68;3.58;;;;;;;;;;5057282;28;20017;-56
2024/02/02 00:21:42;;;;;;;3.13;2.30;;;;;;;;;;5057041;28;20055;-57
2024/02/02 00:24:08;;;;;;;4.28;2.67;;;;;;;;;;5056565;28;20025;-54
2024/02/02 00:26:34;;;;;;;4.80;2.50;;;;;;;;;;5056498;28;20459;-54
2024/02/02 00:29:00;;;;;;;4.78;2.30;;;;;;;;;;5056837;28;20036;-52
2024/02/02 00:31:26;;;;;;;4.45;2.33;;;;;;;;;;5056456;28;20040;-56
2024/02/02 00:33:52;;;;;;;5.22;2.03;;;;;;;;;;5056478;28;20148;-55
2024/02/02 00:36:18;;;;;;;3.25;2.15;;;;;;;;;;5056022;28;20028;-55
2024/02/02 00:38:44;;;;;;;4.75;2.30;;;;;;;;;;5056909;28;20021;-55
2024/02/02 00:41:12;;;;;;;4.75;2.42;;;;;;;;;;5056194;28;20037;-53
2024/02/02 00:43:38;;;;;;;5.32;1.90;;;;;;;;;;5056392;28;20112;-54
2024/02/02 00:46:04;;;;;;;3.13;2.22;;;;;;;;;;5056159;28;20053;-56
2024/02/02 00:48:30;;;;;;;4.78;2.10;;;;;;;;;;5056453;28;20382;-53
2024/02/02 00:50:56;;;;;;;3.58;2.13;;;;;;;;;;5056048;28;20025;-55
2024/02/02 00:53:22;;;;;;;4.70;2.53;;;;;;;;;;5056178;28;20029;-55
2024/02/02 00:55:48;;;;;;;8.13;3.40;;;;;;;;;;5055551;28;20068;-55
2024/02/02 00:58:14;;;;;;;6.07;3.30;;;;;;;;;;5056619;28;20028;-55
2024/02/02 01:00:40;;;;;;;5.28;3.33;;;;;;;;;;5056625;28;20504;-52
2024/02/02 01:03:06;;;;;;;9.25;3.58;;;;;;;;;;5056077;28;20025;-53
2024/02/02 01:05:32;;;;;;;6.45;3.40;;;;;;;;;;5055558;28;20025;-54
2024/02/02 01:07:58;;;;;;;7.47;3.30;;;;;;;;;;5055774;28;20029;-53
2024/02/02 01:10:24;;;;;;;5.72;3.08;;;;;;;;;;5055776;28;20029;-53
2024/02/02 01:12:50;;;;;;;5.50;2.30;;;;;;;;;;5055940;28;20079;-53
2024/02/02 01:15:16;;;;;;;13.32;3.80;;;;;;;;;;5055765;28;20017;-54
2024/02/02 01:17:45;;;;;;;13.15;3.25;;;;;;;;;;5055909;28;20029;-55
2024/02/02 01:20:13;;;;;;;6.35;2.58;;;;;;;;;;5055549;28;20029;-51
2024/02/02 01:22:39;;;;;;;4.65;2.20;;;;;;;;;;5056088;28;20039;-54
2024/02/02 01:25:06;;;;;;;3.35;2.40;;;;;;;;;;5055776;28;20031;-51
2024/02/02 01:27:33;;;;;;;5.38;2.22;;;;;;;;;;5055993;28;20461;-53
2024/02/02 01:29:59;;;;;;;4.35;2.55;;;;;;;;;;5055860;28;20021;-56
2024/02/02 01:32:25;;;;;;;4.32;2.00;;;;;;;;;;5054975;28;20029;-52
2024/02/02 01:34:51;;;;;;;2.90;2.03;;;;;;;;;;5055301;28;20036;-51
2024/02/02 01:37:17;;;;;;;4.82;2.85;;;;;;;;;;5055978;28;20534;-52
2024/02/02 01:39:43;;;;;;;6.00;2.58;;;;;;;;;;5055732;28;20021;-52
2024/02/02 01:42:09;;;;;;;5.63;2.20;;;;;;;;;;5054982;28;20021;-53
2024/02/02 01:44:35;;;;;;;4.80;1.73;;;;;;;;;;5055124;28;20025;-52
2024/02/02 01:47:02;;;;;;;4.28;2.33;;;;;;;;;;5055518;28;20110;-55
2024/02/02 01:49:28;;;;;;;7.47;2.10;;;;;;;;;;5055102;28;20017;-52
2024/02/02 01:51:54;;;;;;;3.45;2.50;;;;;;;;;;5053667;28;20099;-55
2024/02/02 01:54:21;;;;;;;2.85;1.67;;;;;;;;;;5054810;28;20025;-56
2024/02/02 01:56:47;;;;;;;4.80;2.40;;;;;;;;;;5054904;28;20408;-54
2024/02/02 01:59:13;;;;;;;5.75;2.50;;;;;;;;;;5054892;28;20046;-53
2024/02/02 02:01:40;;;;;;;5.72;2.80;;;;;;;;;;5054945;28;20036;-52
2024/02/02 02:04:06;;;;;;;3.58;2.22;;;;;;;;;;5054638;28;20024;-54
2024/02/02 02:06:32;;;;;;;5.70;2.30;;;;;;;;;;5054539;28;20489;-54
2024/02/02 02:08:58;;;;;;;3.42;1.80;;;;;;;;;;5054701;28;20025;-56
2024/02/02 02:11:24;;;;;;;10.02;3.55;;;;;;;;;;5054828;28;20032;-55
2024/02/02 02:13:50;;;;;;;6.65;2.05;;;;;;;;;;5054488;28;20451;-56
2024/02/02 02:16:16;;;;;;;3.55;2.03;;;;;;;;;;5054398;28;20025;-56
2024/02/02 02:18:42;;;;;;;8.82;2.63;;;;;;;;;;5054855;28;20375;-55
2024/02/02 02:21:24;;;;;;;4.95;2.05;;;;;;;;;;5054094;28;20040;-55
2024/02/02 02:23:50;;;;;;;3.55;1.95;;;;;;;;;;5054339;28;20036;-56
2024/02/02 02:26:17;;;;;;;7.85;2.72;;;;;;;;;;5054642;28;20025;-56
2024/02/02 02:28:44;;;;;;;12.55;2.88;;;;;;;;;;5054580;28;20059;-56
2024/02/02 02:31:14;;;;;;;6.13;2.78;;;;;;;;;;5054210;28;20037;-56
2024/02/02 02:33:40;;;;;;;4.68;2.55;;;;;;;;;;5054407;28;20472;-55
2024/02/02 02:36:06;;;;;;;6.22;2.58;;;;;;;;;;5054091;28;20103;-55
2024/02/02 02:38:33;;;;;;;9.95;2.42;;;;;;;;;;5054743;28;20035;-57
2024/02/02 02:40:59;;;;;;;8.52;2.83;;;;;;;;;;5053966;28;20029;-54
2024/02/02 02:43:26;;;;;;;5.70;2.85;;;;;;;;;;5053948;28;20025;-56
2024/02/02 02:45:52;;;;;;;3.45;2.47;;;;;;;;;;5054036;28;20029;-55
2024/02/02 02:48:18;;;;;;;7.38;2.58;;;;;;;;;;5054035;28;20481;-54
2024/02/02 02:50:44;;;;;;;4.78;3.20;;;;;;;;;;5053992;28;20075;-56
2024/02/02 02:53:10;;;;;;;6.45;2.60;;;;;;;;;;5053683;28;20025;-55
2024/02/02 02:55:36;;;;;;;6.35;2.67;;;;;;;;;;5054009;28;20106;-56
2024/02/02 02:58:02;;;;;;;3.97;2.50;;;;;;;;;;5054191;28;20029;-56
2024/02/02 03:00:29;;;;;;;3.72;2.80;;;;;;;;;;5053987;28;20098;-56
2024/02/02 03:02:55;;;;;;;6.22;2.90;;;;;;;;;;5053698;28;20029;-57
2024/02/02 03:05:21;;;;;;;6.03;3.17;;;;;;;;;;5053713;28;20025;-56
2024/02/02 03:07:47;;;;;;;3.55;2.40;;;;;;;;;;5054084;28;20025;-56
2024/02/02 03:10:13;;;;;;;3.55;2.47;;;;;;;;;;5053736;28;20397;-56
2024/02/02 03:12:39;;;;;;;7.65;3.15;;;;;;;;;;5053655;28;20117;-53
2024/02/02 03:15:05;;;;;;;6.38;2.90;;;;;;;;;;5053603;28;20495;-55
2024/02/02 03:17:31;;;;;;;4.10;2.63;;;;;;;;;;5057056;28;20025;-56
2024/02/02 03:19:58;;;;;;;4.57;2.65;;;;;;;;;;5060469;28;20455;-55
2024/02/02 03:22:24;;;;;;;4.25;2.58;;;;;;;;;;5060151;28;20025;-55
2024/02/02 03:24:50;;;;;;;5.90;3.10;;;;;;;;;;5060793;28;20021;-56
2024/02/02 03:27:16;;;;;;;5.82;2.75;;;;;;;;;;5060295;28;20455;-53
2024/02/02 03:29:42;;;;;;;7.78;3.25;;;;;;;;;;5060511;28;20383;-52
2024/02/02 03:32:08;;;;;;;4.32;2.78;;;;;;;;;;5060661;28;20071;-51
2024/02/02 03:34:34;;;;;;;5.20;2.72;;;;;;;;;;5060768;28;20435;-51
2024/02/02 03:37:02;;;;;;;4.45;2.80;;;;;;;;;;5060929;28;20089;-56
2024/02/02 03:39:28;;;;;;;5.75;2.95;;;;;;;;;;5060439;28;20032;-51
2024/02/02 03:41:54;;;;;;;4.88;3.20;;;;;;;;;;5059974;28;20035;-53
2024/02/02 03:44:20;;;;;;;5.13;3.03;;;;;;;;;;5060017;28;20442;-52
2024/02/02 03:46:46;;;;;;;4.18;2.60;;;;;;;;;;5060031;28;20021;-53
2024/02/02 03:49:12;;;;;;;4.53;3.40;;;;;;;;;;5060108;28;20091;-54
2024/02/02 03:51:38;;;;;;;4.82;3.47;;;;;;;;;;5060213;28;20102;-51
2024/02/02 03:54:04;;;;;;;4.50;3.33;;;;;;;;;;5060614;28;20028;-51
2024/02/02 03:56:31;;;;;;;5.53;3.92;;;;;;;;;;5060051;28;20025;-52
2024/02/02 03:58:57;;;;;;;6.72;3.67;;;;;;;;;;5060528;28;20445;-51
2024/02/02 04:01:22;;;;;;;4.40;2.92;;;;;;;;;;5059830;28;20120;-53
2024/02/02 04:03:48;;;;;;;6.13;3.53;;;;;;;;;;5059920;28;20112;-50
2024/02/02 04:06:14;;;;;;;4.40;3.20;;;;;;;;;;5060403;28;20204;-56
2024/02/02 04:08:40;;;;;;;5.47;3.78;;;;;;;;;;5059945;28;20375;-53
2024/02/02 04:11:08;;;;;;;6.40;3.28;;;;;;;;;;5060138;28;20115;-54
2024/02/02 04:13:34;;;;;;;4.65;3.25;;;;;;;;;;5059765;28;20029;-55
2024/02/02 04:16:00;;;;;;;5.85;3.42;;;;;;;;;;5059435;28;20082;-51
2024/02/02 04:18:26;;;;;;;11.18;3.88;;;;;;;;;;5060080;28;20040;-56
2024/02/02 04:20:53;;;;;;;8.68;4.15;;;;;;;;;;5059398;28;20383;-53
2024/02/02 04:23:19;;;;;;;5.47;3.60;;;;;;;;;;5059936;28;20409;-55
2024/02/02 04:25:45;;;;;;;5.43;3.53;;;;;;;;;;5059685;28;20374;-51
2024/02/02 04:28:11;;;;;;;5.07;3.38;;;;;;;;;;5059519;28;20029;-55
2024/02/02 04:30:37;;;;;;;7.22;4.22;;;;;;;;;;5056021;28;20158;-55
2024/02/02 04:33:04;;;;;;;6.18;4.85;;;;;;;;;;5056416;28;20566;-53
2024/02/02 04:35:34;;;;;;;7.20;5.07;;;;;;;;;;5056390;28;20029;-53
2024/02/02 04:38:01;;;;;;;4.90;4.30;;;;;;;;;;5057029;28;20047;-50
2024/02/02 04:40:27;;;;;;;5.55;4.95;;;;;;;;;;5056278;28;20025;-56
2024/02/02 04:42:53;;;;;;;9.30;5.13;;;;;;;;;;5056079;28;20028;-56
2024/02/02 04:45:19;;;;;;;4.20;3.55;;;;;;;;;;5056794;28;20443;-56
2024/02/02 04:47:45;;;;;;;5.00;4.47;;;;;;;;;;5056805;28;20120;-57
2024/02/02 04:50:11;;;;;;;7.90;5.55;;;;;;;;;;5056985;28;20440;-57
2024/02/02 04:52:37;;;;;;;4.97;4.45;;;;;;;;;;5056107;28;20378;-57
2024/02/02 04:55:03;;;;;;;6.28;4.72;;;;;;;;;;5056233;28;20110;-55
2024/02/02 04:57:29;;;;;;;5.93;4.10;;;;;;;;;;5055995;28;20124;-52
2024/02/02 04:59:55;;;;;;;4.75;4.15;;;;;;;;;;5056498;28;20068;-55
2024/02/02 05:02:21;;;;;;;4.68;4.00;;;;;;;;;;5056228;28;20459;-54
2024/02/02 05:04:47;;;;;;;8.40;4.38;;;;;;;;;;5056036;28;20110;-56
2024/02/02 05:07:14;;;;;;;6.43;5.68;;;;;;;;;;5055633;28;20478;-52
2024/02/02 05:09:40;;;;;;;4.88;4.07;;;;;;;;;;5055876;28;20037;-53
2024/02/02 05:12:06;;;;;;;6.00;3.70;;;;;;;;;;5056067;28;20466;-52
2024/02/02 05:14:32;;;;;;;4.82;4.03;;;;;;;;;;5055825;28;20078;-55
2024/02/02 05:16:59;;;;;;;5.85;4.43;;;;;;;;;;5055686;28;20025;-56
2024/02/02 05:19:25;;;;;;;6.28;4.40;;;;;;;;;;5056225;28;20047;-56
2024/02/02 05:21:51;;;;;;;6.07;5.05;;;;;;;;;;5055455;28;20124;-55
2024/02/02 05:24:17;;;;;;;5.00;4.22;;;;;;;;;;5055617;28;20116;-55
2024/02/02 05:26:43;;;;;;;5.28;4.35;;;;;;;;;;5055555;28;20512;-55
2024/02/02 05:29:09;;;;;;;5.03;4.25;;;;;;;;;;5055949;28;20032;-55
2024/02/02 05:31:35;;;;;;;5.85;4.93;;;;;;;;;;5056203;28;20044;-56
2024/02/02 05:34:01;;;;;;;4.82;4.20;;;;;;;;;;5055260;28;20029;-57
2024/02/02 05:36:27;;;;;;;6.05;4.57;;;;;;;;;;5054958;28;20029;-55
2024/02/02 05:38:53;;;;;;;5.65;4.68;;;;;;;;;;5055513;28;20116;-55
2024/02/02 05:41:19;;;;;;;6.72;4.55;;;;;;;;;;5055238;28;20044;-55
2024/02/02 05:43:45;;;;;;;6.75;4.68;;;;;;;;;;5055050;28;20486;-56
2024/02/02 05:46:11;;;;;;;6.90;4.70;;;;;;;;;;5055524;28;20031;-56
2024/02/02 05:48:36;;;;;;;4.78;4.28;;;;;;;;;;5055243;28;20074;-55
2024/02/02 05:51:02;;;;;;;8.18;5.28;;;;;;;;;;5054902;28;20029;-55
2024/02/02 05:53:28;;;;;;;6.45;4.57;;;;;;;;;;5054982;28;20021;-56
2024/02/02 05:55:54;;;;;;;6.72;5.72;;;;;;;;;;5055216;28;20391;-54
2024/02/02 05:58:20;;;;;;;6.07;5.20;;;;;;;;;;5055495;28;20028;-55
2024/02/02 06:00:46;;;;;;;7.43;5.28;;;;;;;;;;5054588;28;20091;-55
2024/02/02 06:03:12;;;;;;;10.15;6.38;;;;;;;;;;5054253;28;20052;-54
2024/02/02 06:05:38;;;;;;;7.10;5.80;;;;;;;;;;5054153;28;20083;-57
2024/02/02 06:08:06;;;;;;;6.63;5.07;;;;;;;;;;5055039;28;20149;-54
2024/02/02 06:10:32;;;;;;;5.78;4.97;;;;;;;;;;5054106;28;20467;-53
2024/02/02 06:12:58;;;;;;;7.50;5.50;;;;;;;;;;5054678;28;20017;-53
2024/02/02 06:15:24;;;;;;;5.70;5.05;;;;;;;;;;5054278;28;20525;-57
2024/02/02 06:17:53;;;;;;;6.68;4.88;;;;;;;;;;5054404;28;20069;-51
2024/02/02 06:20:19;;;;;;;9.35;5.30;;;;;;;;;;5054139;28;20102;-56
2024/02/02 06:22:48;;;;;;;11.88;6.90;;;;;;;;;;5053769;28;20048;-54
2024/02/02 06:25:14;;;;;;;7.78;5.75;;;;;;;;;;5054462;28;20363;-57
2024/02/02 06:27:40;;;;;;;7.20;5.90;;;;;;;;;;5054507;28;20031;-56
2024/02/02 06:30:07;;;;;;;6.68;5.97;;;;;;;;;;5054308;28;20044;-55
2024/02/02 06:32:35;;;;;;;7.85;5.93;;;;;;;;;;5054219;28;20441;-56
2024/02/02 06:35:01;;;;;;;9.02;6.65;;;;;;;;;;5054230;28;20378;-55
2024/02/02 06:37:27;;;;;;;7.68;5.32;;;;;;;;;;5053985;28;20021;-57
2024/02/02 06:39:54;;;;;;;8.18;5.90;;;;;;;;;;5054501;28;20028;-53
2024/02/02 06:42:20;;;;;;;7.65;5.53;;;;;;;;;;5054031;28;20025;-54
2024/02/02 06:44:46;;;;;;;6.40;5.70;;;;;;;;;;5054022;28;20182;-52
2024/02/02 06:47:12;;;;;;;7.13;5.68;;;;;;;;;;5054158;28;20029;-52
2024/02/02 06:49:38;;;;;;;10.18;5.90;;;;;;;;;;5054104;28;20029;-52
2024/02/02 06:52:04;;;;;;;10.13;6.47;;;;;;;;;;5053229;28;20040;-53
2024/02/02 06:54:30;;;;;;;8.25;5.88;;;;;;;;;;5053772;28;20106;-54
2024/02/02 06:56:56;;;;;;;8.35;5.03;;;;;;;;;;5053895;28;20451;-56
2024/02/02 06:59:22;;;;;;;7.80;5.43;;;;;;;;;;5054192;28;20397;-53
2024/02/02 07:01:48;;;;;;;7.57;5.50;;;;;;;;;;5053725;28;20036;-52
2024/02/02 07:04:15;;;;;;;7.10;4.93;;;;;;;;;;5054013;28;20035;-50
2024/02/02 07:06:41;;;;;;;9.02;6.63;;;;;;;;;;5054256;28;20110;-55
2024/02/02 07:09:22;;;;;;;7.63;6.20;;;;;;;;;;5054018;28;20029;-55
2024/02/02 07:12:04;;;;;;;6.32;4.80;;;;;;;;;;5054399;28;20112;-53
2024/02/02 07:14:49;;;;;;;9.32;5.63;;;;;;;;;;5053290;28;20494;-54
2024/02/02 07:17:15;;;;;;;7.15;5.90;;;;;;;;;;5053503;28;20025;-53
2024/02/02 07:19:41;;;;;;;8.05;5.82;;;;;;;;;;5053366;28;20066;-52
2024/02/02 07:22:33;;;;;;;6.90;5.30;;;;;;;;;;5053732;28;20032;-55
2024/02/02 07:24:59;;;;;;;7.80;5.97;;;;;;;;;;5052890;28;20033;-53
2024/02/02 07:27:42;;;;;;;6.53;5.63;;;;;;;;;;5053547;28;20021;-55
2024/02/02 07:30:13;;;;;;;7.20;5.63;;;;;;;;;;5052657;28;20030;-51
2024/02/02 07:32:39;;;;;;;8.77;6.30;;;;;;;;;;5053564;28;20052;-54
2024/02/02 07:35:13;;;;;;;7.05;5.88;;;;;;;;;;5053788;28;20131;-54
2024/02/02 07:37:48;;;;;;;7.72;5.78;;;;;;;;;;5052995;28;20021;-54
2024/02/02 07:40:33;;;;;;;9.40;6.40;;;;;;;;;;5053660;28;20037;-54
2024/02/02 07:42:59;;;;;;;8.45;6.65;;;;;;;;;;5053941;28;20068;-53
2024/02/02 07:45:25;;;;;;;7.93;6.28;;;;;;;;;;5053465;28;20056;-56
2024/02/02 07:47:54;;;;;;;8.50;7.00;;;;;;;;;;5053739;28;20104;-52
2024/02/02 07:50:20;;;;;;;7.13;6.43;;;;;;;;;;5053384;28;20025;-55
2024/02/02 07:52:46;;;;;;;10.02;6.18;;;;;;;;;;5053282;28;20171;-57
2024/02/02 07:55:12;;;;;;;8.23;6.07;;;;;;;;;;5052957;28;20087;-51
2024/02/02 07:57:38;;;;;;;7.45;5.82;;;;;;;;;;5054076;28;20025;-53
2024/02/02 08:00:05;;;;;;;8.25;6.30;;;;;;;;;;5053342;28;20041;-55
2024/02/02 08:02:31;;;;;;;11.80;7.57;;;;;;;;;;5053110;28;20035;-56
2024/02/02 08:04:57;;;;;;;8.70;6.53;;;;;;;;;;5056707;28;20025;-55
2024/02/02 08:07:23;;;;;;;7.88;6.15;;;;;;;;;;5057310;28;20060;-55
2024/02/02 08:09:49;;;;;;;7.80;5.72;;;;;;;;;;5057018;28;20479;-52
2024/02/02 08:12:15;;;;;;;6.43;5.72;;;;;;;;;;5057209;28;20037;-56
2024/02/02 08:14:41;;;;;;;7.95;5.10;;;;;;;;;;5056917;28;20021;-53
2024/02/02 08:17:09;;;;;;;9.82;6.20;;;;;;;;;;5056726;28;20033;-52
2024/02/02 08:19:35;;;;;;;6.57;5.18;;;;;;;;;;5057114;28;20079;-55
2024/02/02 08:22:01;;;;;;;10.07;5.97;;;;;;;;;;5057225;28;20041;-55
2024/02/02 08:24:27;;;;;;;9.10;5.70;;;;;;;;;;5057180;28;20025;-54
2024/02/02 08:26:53;;;;;;;7.15;5.53;;;;;;;;;;5057271;28;20058;-56
2024/02/02 08:29:19;;;;;;;6.72;5.78;;;;;;;;;;5056637;28;20021;-53
2024/02/02 08:31:45;;;;;;;6.28;5.00;;;;;;;;;;5056318;28;20033;-50
2024/02/02 08:34:12;;;;;;;11.00;4.60;;;;;;;;;;5055262;28;20056;-51
2024/02/02 08:36:38;;;;;;;8.20;6.03;;;;;;;;;;5056134;28;20036;-53
2024/02/02 08:39:05;;;;;;;9.32;5.38;;;;;;;;;;5057267;28;20108;-54
2024/02/02 08:41:31;;;;;;;11.45;5.97;;;;;;;;;;5056040;28;20033;-51
2024/02/02 08:43:57;;;;;;;7.57;6.10;;;;;;;;;;5056256;28;20035;-53
2024/02/02 08:46:23;;;;;;;7.75;5.20;;;;;;;;;;5056011;28;20073;-55
2024/02/02 08:48:51;;;;;;;9.05;5.85;;;;;;;;;;5056279;28;20040;-54
2024/02/02 08:51:23;;;;;;;6.65;5.80;;;;;;;;;;5055996;28;20379;-54
2024/02/02 08:54:07;;;;;;;8.27;5.53;;;;;;;;;;5055640;28;20028;-54
2024/02/02 08:56:33;;;;;;;6.15;5.10;;;;;;;;;;5056007;28;20063;-53
2024/02/02 08:58:59;;;;;;;6.93;5.65;;;;;;;;;;5056219;28;20028;-54
2024/02/02 09:01:42;;;;;;;6.75;5.25;;;;;;;;;;5055769;28;20082;-57
2024/02/02 09:04:27;;;;;;;7.45;5.57;;;;;;;;;;5055599;28;20021;-51
2024/02/02 09:06:53;;;;;;;6.88;5.70;;;;;;;;;;5056163;28;20092;-51
2024/02/02 09:09:20;;;;;;;6.35;5.20;;;;;;;;;;5056737;28;20072;-50
2024/02/02 09:11:50;;;;;;;7.20;4.97;;;;;;;;;;5055846;28;20029;-51
2024/02/02 09:14:17;;;;;;;8.00;4.45;;;;;;;;;;5055730;28;20053;-49
2024/02/02 09:16:44;;;;;;;7.78;5.10;;;;;;;;;;5055507;28;20366;-50
2024/02/02 09:19:15;;;;;;;6.57;4.70;;;;;;;;;;5056250;28;20116;-51
2024/02/02 09:21:44;;;;;;;7.03;5.80;;;;;;;;;;5056125;28;20037;-49
2024/02/02 09:24:19;;;;;;;7.22;4.60;;;;;;;;;;5055671;28;20462;-50
2024/02/02 09:26:45;;;;;;;7.25;5.72;;;;;;;;;;5055548;28;20037;-48
2024/02/02 09:29:11;;;;;;;6.53;4.93;;;;;;;;;;5055369;28;20464;-54
2024/02/02 09:31:37;;;;;;;6.63;5.45;;;;;;;;;;5056258;28;20040;-50
2024/02/02 09:34:06;;;;;;;5.70;5.03;;;;;;;;;;5055581;28;20363;-53
2024/02/02 09:36:32;;;;;;;5.43;4.88;;;;;;;;;;5055350;28;20079;-51
2024/02/02 09:39:00;;;;;;;6.55;4.97;;;;;;;;;;5055298;28;20037;-53
2024/02/02 09:41:50;;;;;;;6.60;4.78;;;;;;;;;;5053940;28;20387;-54
2024/02/02 09:44:22;;;;;;;6.03;4.60;;;;;;;;;;5055203;28;20033;-55
2024/02/02 09:46:53;;;;;;;5.47;4.65;;;;;;;;;;5055066;28;20097;-57
2024/02/02 09:49:41;;;;;;;8.93;4.93;;;;;;;;;;5055754;28;20033;-56
2024/02/02 09:52:23;;;;;;;5.78;3.72;;;;;;;;;;5054807;28;20463;-54
2024/02/02 09:54:52;;;;;;;5.13;4.30;;;;;;;;;;5054964;28;20057;-55
2024/02/02 09:57:24;;;;;;;8.75;4.53;;;;;;;;;;5054929;28;20029;-56
2024/02/02 09:59:50;;;;;;;5.95;4.18;;;;;;;;;;5054689;28;20411;-55
2024/02/02 10:02:19;;;;;;;8.40;4.88;;;;;;;;;;5054808;28;20035;-53
2024/02/02 10:04:59;;;;;;;4.10;3.60;;;;;;;;;;5054856;28;20035;-55
2024/02/02 10:07:37;;;;;;;3.90;3.42;;;;;;;;;;5055363;28;20041;-56
2024/02/02 10:10:15;;;;;;;8.38;4.88;;;;;;;;;;5054670;28;20025;-57
2024/02/02 10:12:47;;;;;;;5.30;3.78;;;;;;;;;;5054449;28;20029;-57
2024/02/02 10:15:20;;;;;;;6.38;5.13;;;;;;;;;;5054818;28;20025;-55
2024/02/02 10:18:04;;;;;;;5.40;4.10;;;;;;;;;;5055140;28;20100;-53
2024/02/02 10:20:37;;;;;;;4.30;3.53;;;;;;;;;;5054500;28;20024;-55
2024/02/02 10:23:03;;;;;;;6.57;4.03;;;;;;;;;;5054978;28;20029;-54
2024/02/02 10:25:30;;;;;;;5.47;3.95;;;;;;;;;;5054510;28;20103;-54
2024/02/02 10:28:02;;;;;;;6.28;4.40;;;;;;;;;;5053446;28;20013;-58
2024/02/02 10:30:32;;;;;;;5.70;4.20;;;;;;;;;;5054407;28;20027;-56
2024/02/02 10:33:05;;;;;;;4.72;3.78;;;;;;;;;;5055166;28;20443;-56
2024/02/02 10:35:31;;;;;;;6.85;3.97;;;;;;;;;;5054257;28;20021;-56
2024/02/02 10:38:03;;;;;;;4.13;3.53;;;;;;;;;;5054421;28;20025;-54
2024/02/02 10:40:40;;;;;;;5.57;4.15;;;;;;;;;;5054794;28;20017;-52
2024/02/02 10:43:09;;;;;;;4.70;3.83;;;;;;;;;;5054237;28;20379;-56
2024/02/02 10:45:43;;;;;;;5.20;4.40;;;;;;;;;;5053917;28;20017;-53
2024/02/02 10:48:09;;;;;;;5.05;3.67;;;;;;;;;;5054119;28;20051;-55
2024/02/02 10:50:49;;;;;;;5.30;4.72;;;;;;;;;;5053734;28;20025;-58
2024/02/02 10:53:36;;;;;;;5.00;3.97;;;;;;;;;;5054600;28;20025;-57
2024/02/02 10:56:22;;;;;;;6.68;4.53;;;;;;;;;;5054320;28;20040;-57
2024/02/02 10:58:53;;;;;;;4.10;2.97;;;;;;;;;;5053993;28;20056;-57
2024/02/02 11:01:42;;;;;;;4.32;3.20;;;;;;;;;;5053968;28;20028;-56
2024/02/02 11:04:27;;;;;;;4.32;3.60;;;;;;;;;;5053899;28;20029;-57
2024/02/02 11:07:11;;;;;;;4.38;3.30;;;;;;;;;;5054232;28;20447;-57
2024/02/02 11:09:46;;;;;;;3.85;3.20;;;;;;;;;;5054096;28;20057;-56
2024/02/02 11:12:16;;;;;;;5.53;2.95;;;;;;;;;;5053496;28;20029;-56
2024/02/02 11:14:47;;;;;;;6.78;3.17;;;;;;;;;;5053777;28;20403;-57
2024/02/02 11:17:24;;;;;;;4.88;3.17;;;;;;;;;;5053448;28;20135;-56
2024/02/02 11:20:02;;;;;;;3.38;2.53;;;;;;;;;;5054588;28;20151;-57
2024/02/02 11:22:38;;;;;;;3.30;2.42;;;;;;;;;;5053559;28;20124;-55
2024/02/02 11:25:08;;;;;;;3.03;2.30;;;;;;;;;;5053931;28;20031;-56
2024/02/02 11:27:40;;;;;;;2.65;1.95;;;;;;;;;;5054422;28;20060;-55
2024/02/02 11:30:06;;;;;;;4.30;2.45;;;;;;;;;;5054420;28;20078;-53
2024/02/02 11:32:54;;;;;;;2.95;1.90;;;;;;;;;;5053702;28;20372;-55
2024/02/02 11:35:27;;;;;;;2.65;1.50;;;;;;;;;;5053675;28;20033;-55
2024/02/02 11:38:12;;;;;;;2.60;1.30;;;;;;;;;;5054002;28;20103;-54
2024/02/02 11:40:38;;;;;;;2.60;1.50;;;;;;;;;;5057053;28;20029;-57
2024/02/02 11:43:06;;;;;;;7.65;1.48;;;;;;;;;;5057721;28;20471;-55
2024/02/02 11:45:37;;;;;;;3.25;1.77;;;;;;;;;;5057168;28;20025;-54
2024/02/02 11:48:03;;;;;;;2.55;1.50;;;;;;;;;;5057971;28;20033;-54
2024/02/02 11:50:31;;;;;;;2.30;1.48;;;;;;;;;;5057443;28;20025;-52
2024/02/02 11:53:15;;;;;;;2.17;1.30;;;;;;;;;;5057162;28;20033;-54
2024/02/02 11:55:42;;;;;;;2.53;1.55;;;;;;;;;;5057005;28;20059;-55
2024/02/02 11:58:10;;;;;;;3.70;1.42;;;;;;;;;;5056943;28;20060;-56
2024/02/02 12:00:55;;;;;;;3.53;1.48;;;;;;;;;;5057052;28;20048;-57
2024/02/02 12:03:52;;;;;;;2.15;1.58;;;;;;;;;;5057009;28;20032;-53
2024/02/02 12:06:19;;;;;;;1.75;0.90;;;;;;;;;;5052130;28;20036;-54
2024/02/02 12:09:02;;;;;;;2.30;1.42;;;;;;;;;;5056993;28;20029;-57
2024/02/02 12:11:34;;;;;;;1.77;1.05;;;;;;;;;;5057805;28;20024;-60
2024/02/02 12:14:02;;;;;;;2.35;1.42;;;;;;;;;;5057064;28;20100;-56
2024/02/02 12:16:28;;;;;;;2.42;1.05;;;;;;;;;;5056420;28;20029;-55
2024/02/02 12:18:54;;;;;;;2.35;1.38;;;;;;;;;;5056724;28;20032;-56
2024/02/02 12:21:21;;;;;;;2.13;0.98;;;;;;;;;;5056709;28;20040;-56
2024/02/02 12:23:47;;;;;;;2.17;1.10;;;;;;;;;;5056758;28;20374;-56
2024/02/02 12:26:14;;;;;;;1.90;0.95;;;;;;;;;;5057144;28;20032;-55
2024/02/02 12:28:40;;;;;;;1.58;0.98;;;;;;;;;;5057049;28;20029;-52
2024/02/02 12:31:06;;;;;;;2.13;1.00;;;;;;;;;;5056606;28;20028;-57
2024/02/02 12:33:32;;;;;;;2.58;1.20;;;;;;;;;;5057145;28;20036;-55
2024/02/02 12:36:01;;;;;;;2.53;0.88;;;;;;;;;;5056857;28;20017;-56
2024/02/02 12:38:27;;;;;;;2.03;0.88;;;;;;;;;;5056498;28;20028;-55
2024/02/02 12:40:53;;;;;;;4.43;0.90;;;;;;;;;;5056340;28;20156;-57
2024/02/02 12:43:25;;;;;;;1.35;0.63;;;;;;;;;;5056698;28;20029;-57
2024/02/02 12:45:53;;;;;;;1.98;1.00;;;;;;;;;;5056359;28;20028;-56
2024/02/02 12:48:19;;;;;;;3.08;0.90;;;;;;;;;;5055612;28;20451;-55
2024/02/02 12:50:45;;;;;;;0.98;0.60;;;;;;;;;;5055168;28;20378;-55
2024/02/02 12:53:11;;;;;;;3.58;0.60;;;;;;;;;;5056334;28;20112;-57
2024/02/02 12:55:38;;;;;;;1.48;0.77;;;;;;;;;;5056302;28;20084;-57
2024/02/02 12:58:05;;;;;;;1.60;0.63;;;;;;;;;;5056683;28;20029;-56
2024/02/02 13:00:31;;;;;;;1.38;0.70;;;;;;;;;;5055929;28;20075;-54
2024/02/02 13:02:58;;;;;;;1.52;0.85;;;;;;;;;;5055824;28;20431;-55
2024/02/02 13:05:26;;;;;;;1.30;0.70;;;;;;;;;;5056731;28;20051;-56
2024/02/02 13:07:52;;;;;;;1.60;0.70;;;;;;;;;;5056274;28;20025;-55
2024/02/02 13:10:37;;;;;;;1.23;0.63;;;;;;;;;;5056056;28;20173;-57
2024/02/02 13:13:15;;;;;;;1.38;0.60;;;;;;;;;;5055714;28;20352;-56
2024/02/02 13:15:41;;;;;;;2.22;0.80;;;;;;;;;;5056021;28;20021;-57
2024/02/02 13:18:12;;;;;;;1.30;0.60;;;;;;;;;;5056456;28;20405;-55
2024/02/02 13:20:39;;;;;;;1.90;0.73;;;;;;;;;;5055617;28;20021;-57
2024/02/02 13:23:10;;;;;;;1.20;0.52;;;;;;;;;;5055424;28;20033;-57
2024/02/02 13:25:50;;;;;;;1.58;0.77;;;;;;;;;;5055603;28;20474;-54
2024/02/02 13:28:16;;;;;;;;;;;;;;;;;;5056495;28;20429;-57
2024/02/02 13:30:53;;;;;;;1.70;0.73;;;;;;;;;;5055257;28;19904;-56
2024/02/02 13:33:20;;;;;;;1.98;0.93;;;;;;;;;;5055422;28;20016;-56
2024/02/02 13:35:53;;;;;;;2.00;1.00;;;;;;;;;;5055337;28;20152;-53
2024/02/02 13:38:21;;;;;;;2.05;0.82;;;;;;;;;;5055393;28;20025;-57
2024/02/02 13:40:47;;;;;;;1.55;0.70;;;;;;;;;;5055114;28;20118;-56
2024/02/02 13:43:14;;;;;;;1.45;0.55;;;;;;;;;;5055656;28;20090;-55
2024/02/02 13:45:42;;;;;;;0.95;0.50;;;;;;;;;;5055000;28;20371;-55
2024/02/02 13:48:12;;;;;;;1.67;0.90;;;;;;;;;;5055759;28;20029;-56
2024/02/02 13:50:59;;;;;;;2.10;1.10;;;;;;;;;;5054984;28;20479;-55
2024/02/02 13:53:26;;;;;;;1.60;0.75;;;;;;;;;;5055607;28;20029;-55
2024/02/02 13:55:52;;;;;;;1.55;0.85;;;;;;;;;;5055690;28;20481;-54
2024/02/02 13:58:18;;;;;;;2.05;0.70;;;;;;;;;;5055330;28;20417;-56
2024/02/02 14:00:44;;;;;;;1.75;0.82;;;;;;;;;;5054973;28;20025;-55
2024/02/02 14:03:11;;;;;;;1.90;0.85;;;;;;;;;;5054642;28;20036;-54
2024/02/02 14:05:39;;;;;;;4.22;0.50;;;;;;;;;;5054659;28;20025;-57
2024/02/02 14:08:06;;;;;;;2.83;0.50;;;;;;;;;;5054716;28;20025;-56
2024/02/02 14:10:42;;;;;;;1.65;0.73;;;;;;;;;;5054826;28;20017;-53
2024/02/02 14:13:26;;;;;;;1.02;0.40;;;;;;;;;;5054693;28;20021;-57
2024/02/02 14:15:55;;;;;;;0.70;0.40;;;;;;;;;;5054915;28;20054;-57
2024/02/02 14:18:23;;;;;;;1.10;0.50;;;;;;;;;;5054587;28;20051;-57
2024/02/02 14:20:49;;;;;;;1.98;0.60;;;;;;;;;;5054331;28;20048;-56
2024/02/02 14:23:15;;;;;;;0.82;0.40;;;;;;;;;;5054071;28;20067;-55
2024/02/02 14:25:42;;;;;;;1.45;0.60;;;;;;;;;;5055149;28;20029;-57
2024/02/02 14:28:14;;;;;;;1.83;0.77;;;;;;;;;;5054567;28;20067;-57
2024/02/02 14:30:41;;;;;;;1.33;0.63;;;;;;;;;;5054216;28;20436;-53
2024/02/02 14:33:07;;;;;;;2.33;0.65;;;;;;;;;;5054279;28;20028;-55
2024/02/02 14:35:33;;;;;;;1.90;0.77;;;;;;;;;;5053979;28;20466;-57
2024/02/02 14:37:59;;;;;;;1.23;0.60;;;;;;;;;;5054172;28;20116;-52
2024/02/02 14:40:25;;;;;;;1.15;0.68;;;;;;;;;;5054088;28;20079;-55
2024/02/02 14:42:51;;;;;;;1.90;0.77;;;;;;;;;;5053814;28;20030;-55
2024/02/02 14:45:19;;;;;;;2.88;0.90;;;;;;;;;;5053836;28;20049;-57
2024/02/02 14:47:45;;;;;;;1.63;0.80;;;;;;;;;;5054187;28;20017;-54
2024/02/02 14:50:14;;;;;;;3.10;0.90;;;;;;;;;;5053969;28;20111;-55
2024/02/02 14:52:41;;;;;;;1.33;0.80;;;;;;;;;;5054439;28;20123;-56